Terminal Aerodrome Forecast
Issued by NWS Buffalo, NY

Home | Current Version | Previous Version | Text Only | Print | Product List | Glossary On
Versions: 1 2 3 4 5 6 7 8 9 10 11 12 13 14 15 16 17 18 19 20 21 22 23 24 25 26 27
000
FTUS41 KBUF 310300 AAA
TAFROC
TAF AMD
KROC 310311Z 3103/3124 22005KT P6SM SCT100
     FM311300 22004KT P6SM VCSH BKN045 BKN100
     FM311500 22004KT 6SM -SHRA BKN045 OVC060
     FM312000 24007KT P6SM BKN080=

USA.gov is the U.S. government's official web portal to all federal, state and local government web resources and services.